Time;durP1;ratioP1;P1;durP2;ratioP2;P2;SDS_P1;SDS_P2;PMS_P1;PMS_P2;Temp;Humidity;BMP_temperature;BMP_pressure;BME280_temperature;BME280_humidity;BME280_pressure;Samples;Min_cycle;Max_cycle;Signal;HPM_P1;HPM_P2
2022/08/03 00:00:42;;;;;;;1.43;1.43;;;25.00;66.00;;;;;;5115134;27;43569;-74
2022/08/03 00:03:13;;;;;;;1.20;1.20;;;25.00;67.00;;;;;;5133236;27;43947;-73
2022/08/03 00:05:44;;;;;;;1.20;1.20;;;25.00;66.20;;;;;;5122029;27;43656;-73
2022/08/03 00:08:33;;;;;;;1.20;1.20;;;25.10;65.90;;;;;;5134760;27;44009;-73
2022/08/03 00:11:07;;;;;;;1.10;1.10;;;25.20;65.30;;;;;;5126269;27;44026;-74
2022/08/03 00:13:35;;;;;;;1.10;1.10;;;25.30;64.80;;;;;;5117174;27;44018;-73
2022/08/03 00:16:03;;;;;;;1.10;1.10;;;25.40;64.70;;;;;;5135122;27;43980;-74
2022/08/03 00:18:33;;;;;;;1.27;1.27;;;25.30;64.40;;;;;;5125904;27;45224;-73
2022/08/03 00:21:01;;;;;;;1.27;1.27;;;25.30;64.80;;;;;;5131078;27;44155;-74
2022/08/03 00:23:32;;;;;;;1.20;1.20;;;25.20;65.20;;;;;;5135057;27;43891;-73
2022/08/03 00:26:20;;;;;;;1.20;1.20;;;25.20;65.00;;;;;;5135122;27;44102;-74
2022/08/03 00:28:49;;;;;;;1.30;1.30;;;25.10;64.80;;;;;;5129180;27;44049;-73
2022/08/03 00:31:16;;;;;;;1.30;1.30;;;25.10;66.20;;;;;;5120397;27;44002;-73
2022/08/03 00:34:04;;;;;;;1.20;1.20;;;25.10;65.90;;;;;;5126037;27;43433;-73
2022/08/03 00:36:33;;;;;;;1.10;1.10;;;25.10;65.80;;;;;;5121137;27;43288;-73
2022/08/03 00:39:01;;;;;;;1.30;1.30;;;25.20;65.40;;;;;;5095550;27;46081;-73
2022/08/03 00:41:32;;;;;;;1.17;1.17;;;25.30;65.10;;;;;;5114404;27;44189;-74
2022/08/03 00:44:00;;;;;;;1.30;1.30;;;25.30;64.80;;;;;;5129540;27;43889;-74
2022/08/03 00:46:28;;;;;;;1.30;1.30;;;25.30;64.70;;;;;;5128180;27;43404;-73
2022/08/03 00:48:56;;;;;;;1.07;1.07;;;25.20;64.80;;;;;;5118700;27;43995;-73
2022/08/03 00:51:24;;;;;;;1.23;1.23;;;25.20;65.50;;;;;;5129987;27;43401;-74
2022/08/03 00:53:53;;;;;;;1.10;1.10;;;25.10;65.50;;;;;;5114806;27;43410;-73
2022/08/03 00:56:21;;;;;;;1.30;1.30;;;25.20;65.30;;;;;;5134565;27;43390;-74
2022/08/03 00:58:50;;;;;;;1.20;1.20;;;25.30;64.90;;;;;;5126307;27;43931;-73
2022/08/03 01:01:18;;;;;;;1.13;1.13;;;25.40;64.80;;;;;;5130714;27;43848;-73
2022/08/03 01:03:46;;;;;;;1.10;1.10;;;25.30;64.50;;;;;;5131097;27;43914;-73
2022/08/03 01:06:17;;;;;;;1.23;1.23;;;25.30;64.50;;;;;;5130964;27;44174;-72
2022/08/03 01:08:48;;;;;;;1.13;1.13;;;25.20;65.20;;;;;;5131090;27;44492;-74
2022/08/03 01:11:19;;;;;;;1.17;1.17;;;25.20;65.30;;;;;;5131052;27;44180;-73
2022/08/03 01:13:53;;;;;;;1.27;1.27;;;25.10;65.00;;;;;;5113469;27;43358;-73
2022/08/03 01:16:43;;;;;;;1.20;1.20;;;25.10;65.00;;;;;;5092276;27;43983;-73
2022/08/03 01:19:32;;;;;;;1.20;1.20;;;25.00;65.80;;;;;;5101227;27;46105;-72
2022/08/03 01:22:11;;;;;;;1.30;1.30;;;25.00;66.00;;;;;;5130479;27;43933;-73
2022/08/03 01:24:44;;;;;;;1.30;1.30;;;25.10;65.80;;;;;;5128629;27;43948;-73
2022/08/03 01:27:15;;;;;;;1.33;1.33;;;25.20;65.30;;;;;;5131063;27;43925;-73
2022/08/03 01:30:12;;;;;;;1.33;1.33;;;25.30;65.70;;;;;;5130309;27;44071;-73
2022/08/03 01:32:42;;;;;;;1.10;1.10;;;25.30;64.70;;;;;;5111698;27;44213;-73
2022/08/03 01:35:33;;;;;;;1.10;1.10;;;25.30;64.50;;;;;;5073333;27;43929;-73
2022/08/03 01:38:09;;;;;;;1.40;1.30;;;25.20;65.10;;;;;;5110694;27;44061;-74
2022/08/03 01:40:37;;;;;;;1.10;1.10;;;25.20;65.20;;;;;;5109964;27;44075;-73
2022/08/03 01:43:06;;;;;;;1.20;1.20;;;25.10;64.90;;;;;;5110068;27;44129;-72
2022/08/03 01:45:35;;;;;;;1.30;1.30;;;25.10;65.00;;;;;;5110366;27;43457;-75
2022/08/03 01:48:03;;;;;;;1.20;1.20;;;25.10;65.60;;;;;;5110403;27;43939;-74
2022/08/03 01:50:33;;;;;;;1.30;1.20;;;25.10;65.80;;;;;;5110132;27;43898;-73
2022/08/03 01:53:01;;;;;;;1.10;1.10;;;25.00;65.30;;;;;;5109448;27;44136;-72
2022/08/03 01:55:30;;;;;;;1.10;1.10;;;25.00;65.30;;;;;;5109644;27;43409;-73
2022/08/03 01:57:58;;;;;;;1.20;1.20;;;25.00;66.00;;;;;;5110485;27;43921;-73
2022/08/03 02:00:34;;;;;;;1.10;1.10;;;25.00;66.20;;;;;;5109922;27;43939;-73
2022/08/03 02:03:03;;;;;;;1.27;1.27;;;25.00;66.10;;;;;;5091224;27;44732;-72
2022/08/03 02:05:31;;;;;;;1.27;1.10;;;25.10;65.70;;;;;;5110114;27;43810;-73
2022/08/03 02:07:59;;;;;;;1.23;1.23;;;25.20;65.20;;;;;;5091619;27;44050;-73
2022/08/03 02:10:27;;;;;;;1.10;1.10;;;25.30;64.80;;;;;;5108431;27;43591;-73
2022/08/03 02:13:03;;;;;;;1.20;1.20;;;25.40;64.60;;;;;;5109197;27;43943;-73
2022/08/03 02:15:31;;;;;;;1.10;1.10;;;25.30;64.40;;;;;;5109817;27;43959;-73
2022/08/03 02:18:00;;;;;;;1.30;1.30;;;25.30;64.70;;;;;;5091508;27;43988;-74
2022/08/03 02:20:29;;;;;;;1.20;1.20;;;25.20;65.10;;;;;;5109824;27;43966;-74
2022/08/03 02:22:59;;;;;;;1.30;1.30;;;25.20;65.00;;;;;;5110149;27;43974;-73
2022/08/03 02:25:27;;;;;;;1.13;1.13;;;25.10;64.60;;;;;;5110805;27;43944;-73
2022/08/03 02:27:56;;;;;;;1.10;1.10;;;25.10;65.30;;;;;;5129520;27;43967;-73
2022/08/03 02:30:27;;;;;;;1.10;1.10;;;25.10;65.70;;;;;;5128428;27;43748;-73
2022/08/03 02:32:56;;;;;;;1.20;1.20;;;25.00;65.50;;;;;;5109482;27;44059;-73
2022/08/03 02:35:27;;;;;;;1.50;1.50;;;25.00;65.10;;;;;;5109504;27;44006;-72
2022/08/03 02:37:58;;;;;;;1.30;1.30;;;25.00;65.40;;;;;;5109826;27;44011;-72
2022/08/03 02:40:26;;;;;;;1.30;1.30;;;25.00;66.10;;;;;;5090605;27;46817;-73
2022/08/03 02:42:56;;;;;;;1.30;1.30;;;25.00;66.20;;;;;;5090515;27;45679;-73
2022/08/03 02:45:24;;;;;;;1.20;1.20;;;25.10;65.80;;;;;;5109684;27;43388;-73
2022/08/03 02:47:55;;;;;;;1.23;1.23;;;25.20;66.20;;;;;;5112581;27;43884;-72
2022/08/03 02:50:25;;;;;;;1.20;1.20;;;25.30;64.90;;;;;;5110533;27;47118;-74
2022/08/03 02:52:53;;;;;;;1.20;1.20;;;25.40;64.80;;;;;;5128624;27;44038;-73
2022/08/03 02:55:22;;;;;;;1.10;1.10;;;25.30;64.40;;;;;;5128973;27;43933;-73
2022/08/03 02:57:50;;;;;;;1.20;1.20;;;25.30;64.50;;;;;;5110799;27;43504;-73
2022/08/03 03:00:18;;;;;;;1.47;1.40;;;25.20;65.10;;;;;;5129285;27;43966;-73
2022/08/03 03:02:57;;;;;;;1.50;1.50;;;25.20;65.20;;;;;;5128868;27;43934;-73
2022/08/03 03:05:26;;;;;;;1.10;1.10;;;25.20;64.60;;;;;;5128703;27;43952;-73
2022/08/03 03:08:15;;;;;;;1.30;1.30;;;25.10;65.00;;;;;;5129231;27;43406;-73
2022/08/03 03:10:47;;;;;;;1.30;1.30;;;25.10;65.60;;;;;;5129077;27;43835;-73
2022/08/03 03:13:20;;;;;;;1.10;1.10;;;25.00;65.30;;;;;;5128905;27;43344;-74
2022/08/03 03:15:48;;;;;;;1.20;1.20;;;25.00;65.00;;;;;;5110113;27;43927;-72
2022/08/03 03:18:16;;;;;;;1.30;1.30;;;25.00;65.40;;;;;;5110337;27;43572;-74
2022/08/03 03:20:50;;;;;;;1.30;1.30;;;25.00;66.00;;;;;;5128282;27;43952;-74
2022/08/03 03:23:18;;;;;;;1.33;1.33;;;25.00;66.10;;;;;;5109924;27;44478;-73
2022/08/03 03:25:46;;;;;;;1.27;1.27;;;25.00;65.80;;;;;;5128798;27;43988;-74
2022/08/03 03:28:14;;;;;;;1.10;1.10;;;25.10;65.30;;;;;;5128868;27;43993;-72
2022/08/03 03:30:42;;;;;;;1.30;1.30;;;25.30;64.80;;;;;;5128267;27;43898;-73
2022/08/03 03:33:10;;;;;;;1.30;1.30;;;25.40;64.50;;;;;;5109882;27;44588;-73
2022/08/03 03:35:38;;;;;;;1.10;1.10;;;25.40;64.40;;;;;;5109625;27;44035;-73
2022/08/03 03:38:10;;;;;;;1.23;1.23;;;25.40;64.30;;;;;;5128583;27;43936;-74
2022/08/03 03:40:38;;;;;;;1.27;1.27;;;25.30;64.80;;;;;;5128072;27;43903;-73
2022/08/03 03:43:07;;;;;;;1.20;1.20;;;25.20;65.00;;;;;;5127982;27;43975;-73
2022/08/03 03:45:35;;;;;;;1.43;1.43;;;25.20;65.20;;;;;;5128353;27;44013;-73
2022/08/03 03:48:04;;;;;;;1.20;1.20;;;25.10;64.90;;;;;;5110449;27;43912;-73
2022/08/03 03:50:32;;;;;;;1.17;1.17;;;25.10;65.50;;;;;;5108007;27;43894;-73
2022/08/03 03:53:02;;;;;;;1.40;1.40;;;25.10;65.80;;;;;;5108247;27;44078;-73
2022/08/03 03:55:34;;;;;;;1.30;1.30;;;25.10;65.60;;;;;;5108582;27;43915;-72
2022/08/03 03:58:22;;;;;;;1.30;1.30;;;25.20;65.20;;;;;;5108592;27;43384;-73
2022/08/03 04:00:54;;;;;;;1.03;1.03;;;25.30;64.90;;;;;;5108683;27;44048;-73
2022/08/03 04:03:22;;;;;;;1.33;1.33;;;25.30;64.80;;;;;;5098943;27;44492;-73
2022/08/03 04:11:27;;;;;;;1.43;1.43;;;25.10;65.30;;;;;;5127887;27;43905;-73
2022/08/03 04:13:58;;;;;;;1.50;1.50;;;25.10;65.30;;;;;;5128056;27;43962;-73
2022/08/03 04:16:30;;;;;;;1.20;1.20;;;25.10;65.10;;;;;;5127973;27;43910;-73
2022/08/03 04:19:03;;;;;;;1.30;1.30;;;25.00;65.80;;;;;;5128381;27;43374;-74
2022/08/03 04:21:33;;;;;;;1.10;1.10;;;25.00;65.90;;;;;;5127955;27;43907;-73
2022/08/03 04:24:04;;;;;;;1.10;1.10;;;25.10;65.70;;;;;;5127941;27;43973;-74
2022/08/03 04:26:35;;;;;;;1.40;1.40;;;25.10;65.30;;;;;;5127887;27;43749;-73
2022/08/03 04:29:03;;;;;;;1.10;1.10;;;25.30;64.90;;;;;;5128181;27;43947;-72
2022/08/03 04:31:31;;;;;;;1.15;1.15;;;25.30;64.60;;;;;;5127662;27;43973;-73
2022/08/03 04:34:00;;;;;;;1.20;1.20;;;25.40;64.50;;;;;;5129722;27;44107;-73
2022/08/03 04:36:32;;;;;;;1.10;1.10;;;25.30;64.40;;;;;;5112561;27;43920;-74
2022/08/03 04:39:02;;;;;;;1.20;1.20;;;25.30;64.90;;;;;;5131896;27;44119;-73
2022/08/03 04:41:30;;;;;;;1.33;1.23;;;25.20;65.00;;;;;;5130763;27;44037;-73
2022/08/03 04:44:00;;;;;;;1.20;1.20;;;25.20;65.60;;;;;;5131240;27;43926;-74
2022/08/03 04:46:32;;;;;;;1.20;1.20;;;25.10;64.70;;;;;;5131474;27;44090;-73
2022/08/03 04:49:00;;;;;;;1.20;1.20;;;25.10;65.50;;;;;;5119263;27;44364;-73
2022/08/03 04:51:29;;;;;;;1.20;1.20;;;25.10;65.60;;;;;;5116988;27;43972;-73
2022/08/03 04:53:58;;;;;;;1.10;1.10;;;25.10;65.50;;;;;;5131087;27;43998;-73
2022/08/03 04:56:26;;;;;;;1.10;1.10;;;25.20;65.00;;;;;;5131257;27;43961;-74
2022/08/03 04:58:56;;;;;;;1.13;1.13;;;25.30;64.70;;;;;;5112572;27;43790;-73
2022/08/03 05:01:25;;;;;;;1.30;1.30;;;25.30;64.60;;;;;;5130896;27;43951;-73
2022/08/03 05:03:53;;;;;;;1.20;1.20;;;25.30;64.40;;;;;;5104384;27;43948;-74
2022/08/03 05:06:22;;;;;;;1.13;1.13;;;25.20;64.60;;;;;;5104240;27;43386;-73
2022/08/03 05:08:52;;;;;;;1.40;1.40;;;25.20;65.10;;;;;;5104936;27;43951;-72
2022/08/03 05:11:20;;;;;;;1.10;1.10;;;25.10;65.10;;;;;;5104687;27;44000;-72
2022/08/03 05:13:48;;;;;;;1.30;1.30;;;25.10;64.80;;;;;;5092930;27;45165;-74
2022/08/03 05:16:18;;;;;;;1.10;1.10;;;25.10;65.20;;;;;;5104985;27;43987;-74
2022/08/03 05:18:47;;;;;;;1.20;1.10;;;25.00;65.70;;;;;;5111349;27;43446;-75
2022/08/03 05:21:18;;;;;;;1.20;1.20;;;25.00;65.60;;;;;;5110807;27;43833;-72
2022/08/03 05:23:49;;;;;;;1.20;1.20;;;25.10;65.30;;;;;;5111054;27;43945;-72
2022/08/03 05:26:17;;;;;;;1.47;1.37;;;25.20;64.70;;;;;;5111211;27;43372;-74
2022/08/03 05:28:45;;;;;;;1.30;1.30;;;25.30;64.50;;;;;;5111125;27;44010;-74
2022/08/03 05:31:21;;;;;;;1.40;1.40;;;25.30;64.30;;;;;;5110865;27;44006;-72
2022/08/03 05:33:50;;;;;;;1.40;1.40;;;25.30;64.20;;;;;;5107838;27;45014;-72
2022/08/03 05:36:18;;;;;;;1.30;1.30;;;25.20;64.70;;;;;;5121438;27;43953;-73
2022/08/03 05:38:46;;;;;;;1.20;1.20;;;25.10;64.90;;;;;;5111323;27;43876;-73
2022/08/03 05:41:14;;;;;;;1.30;1.30;;;25.10;64.90;;;;;;5110237;27;44009;-73
2022/08/03 05:43:51;;;;;;;1.30;1.30;;;25.10;64.60;;;;;;5091650;27;45293;-74
2022/08/03 05:46:19;;;;;;;1.13;1.13;;;25.00;65.30;;;;;;5110904;27;44073;-74
2022/08/03 05:48:47;;;;;;;1.20;1.20;;;25.00;65.40;;;;;;5092488;27;43905;-73
2022/08/03 05:51:19;;;;;;;1.23;1.23;;;25.00;65.10;;;;;;5110100;27;43681;-73
2022/08/03 05:53:47;;;;;;;1.30;1.30;;;25.10;64.60;;;;;;5092250;27;44871;-72
2022/08/03 05:56:15;;;;;;;1.37;1.37;;;25.30;64.30;;;;;;5114871;27;43819;-73
2022/08/03 05:58:45;;;;;;;1.20;1.20;;;25.30;64.10;;;;;;5111826;27;43530;-73
2022/08/03 06:01:13;;;;;;;1.37;1.37;;;25.30;64.00;;;;;;5129948;27;43773;-73
2022/08/03 06:03:41;;;;;;;1.37;1.37;;;25.30;63.90;;;;;;5111616;27;43994;-72
2022/08/03 06:06:15;;;;;;;1.60;1.50;;;25.20;64.60;;;;;;5091623;27;43447;-73
2022/08/03 06:08:47;;;;;;;1.30;1.30;;;25.10;64.50;;;;;;5110812;27;44033;-74
2022/08/03 06:11:16;;;;;;;1.33;1.33;;;25.10;64.50;;;;;;5110102;27;44005;-73
2022/08/03 06:13:46;;;;;;;1.40;1.40;;;25.10;64.30;;;;;;5123070;27;43937;-72
2022/08/03 06:16:14;;;;;;;1.30;1.30;;;25.00;65.90;;;;;;5130087;27;43996;-73
2022/08/03 06:18:42;;;;;;;1.27;1.27;;;25.00;65.20;;;;;;5103624;27;43455;-74
2022/08/03 06:21:10;;;;;;;1.30;1.30;;;25.10;64.90;;;;;;5084492;27;44143;-72
2022/08/03 06:23:44;;;;;;;1.20;1.20;;;25.20;64.60;;;;;;5103533;27;43924;-73
2022/08/03 06:26:24;;;;;;;1.13;1.13;;;25.30;64.30;;;;;;5125440;27;44000;-73
2022/08/03 06:28:53;;;;;;;1.30;1.30;;;25.30;64.20;;;;;;5108597;27;44121;-74
2022/08/03 06:31:24;;;;;;;1.17;1.17;;;25.20;64.00;;;;;;5109595;27;43950;-73
2022/08/03 06:33:59;;;;;;;1.30;1.30;;;25.20;64.60;;;;;;5127108;27;43869;-74
2022/08/03 06:36:49;;;;;;;1.10;1.10;;;25.10;64.70;;;;;;5129908;27;44106;-74
2022/08/03 06:39:19;;;;;;;1.47;1.47;;;25.10;64.70;;;;;;5130455;27;43942;-73
2022/08/03 06:41:52;;;;;;;1.33;1.33;;;25.00;64.50;;;;;;5128833;27;43966;-74
2022/08/03 06:44:20;;;;;;;1.23;1.23;;;25.00;65.20;;;;;;5129591;27;43926;-74
2022/08/03 06:46:48;;;;;;;1.40;1.40;;;24.90;65.40;;;;;;5110666;27;44006;-74
2022/08/03 06:49:18;;;;;;;1.20;1.20;;;25.00;65.40;;;;;;5129882;27;43990;-73
2022/08/03 06:51:46;;;;;;;1.20;1.20;;;25.00;65.10;;;;;;5114308;27;43932;-73
2022/08/03 06:54:34;;;;;;;1.30;1.30;;;24.90;65.40;;;;;;5090500;27;44438;-73
2022/08/03 06:57:04;;;;;;;1.43;1.43;;;24.90;65.90;;;;;;5110008;27;43978;-73
2022/08/03 06:59:32;;;;;;;1.27;1.20;;;24.90;65.50;;;;;;5109579;27;44080;-73
2022/08/03 07:02:20;;;;;;;1.40;1.40;;;25.00;65.30;;;;;;5109093;27;43893;-73
2022/08/03 07:04:48;;;;;;;1.30;1.30;;;25.10;64.60;;;;;;5109289;27;43785;-72
2022/08/03 07:07:18;;;;;;;1.30;1.30;;;25.30;64.10;;;;;;5109440;27;43992;-73
2022/08/03 07:09:48;;;;;;;1.40;1.40;;;25.30;64.10;;;;;;5109653;27;43963;-74
2022/08/03 07:12:26;;;;;;;1.57;1.57;;;25.30;64.10;;;;;;5108639;27;44012;-73
2022/08/03 07:14:54;;;;;;;1.50;1.50;;;25.20;64.30;;;;;;5108881;27;44016;-73
2022/08/03 07:17:31;;;;;;;1.20;1.20;;;25.10;64.60;;;;;;5102334;27;43472;-73
2022/08/03 07:19:59;;;;;;;1.50;1.50;;;25.10;64.60;;;;;;5102880;27;43890;-74
2022/08/03 07:22:27;;;;;;;1.30;1.30;;;25.10;64.50;;;;;;5102157;27;44007;-73
2022/08/03 07:24:56;;;;;;;1.50;1.50;;;25.00;64.80;;;;;;5108766;27;44008;-73
2022/08/03 07:27:29;;;;;;;1.70;1.70;;;25.00;65.40;;;;;;5090202;27;43411;-72
2022/08/03 07:30:00;;;;;;;1.33;1.30;;;24.90;65.10;;;;;;5108820;27;44009;-73
2022/08/03 07:32:30;;;;;;;1.40;1.40;;;25.00;65.10;;;;;;5108599;27;43955;-72
2022/08/03 07:34:58;;;;;;;1.30;1.30;;;24.90;65.40;;;;;;5089991;27;46357;-73
2022/08/03 07:37:28;;;;;;;1.60;1.30;;;24.80;65.80;;;;;;5097668;27;44023;-74
2022/08/03 07:39:56;;;;;;;1.97;1.70;;;24.90;65.40;;;;;;5128932;27;43911;-75
2022/08/03 07:42:26;;;;;;;1.93;1.83;;;25.00;64.80;;;;;;5109073;27;45649;-73
2022/08/03 07:44:54;;;;;;;1.73;1.67;;;25.10;63.30;;;;;;5109248;27;44602;-74
2022/08/03 07:47:23;;;;;;;1.60;1.60;;;25.20;63.50;;;;;;5128469;27;43489;-73
2022/08/03 07:50:01;;;;;;;1.77;1.77;;;25.30;63.60;;;;;;5128587;27;43445;-74
2022/08/03 07:52:48;;;;;;;1.93;1.70;;;25.20;63.70;;;;;;5127978;27;44039;-73
2022/08/03 07:55:19;;;;;;;1.93;1.90;;;25.20;63.90;;;;;;5110104;27;44071;-73
2022/08/03 07:57:48;;;;;;;4.40;1.77;;;25.10;63.50;;;;;;5089777;27;43790;-72
2022/08/03 08:00:20;;;;;;;1.63;1.63;;;25.10;63.90;;;;;;5108817;27;44035;-73
2022/08/03 08:02:48;;;;;;;1.80;1.70;;;25.00;63.90;;;;;;5089579;27;45772;-72
2022/08/03 08:05:16;;;;;;;1.80;1.70;;;25.00;64.40;;;;;;5082946;27;44448;-73
2022/08/03 08:07:46;;;;;;;2.13;1.60;;;25.00;64.80;;;;;;5082848;27;44051;-73
2022/08/03 08:10:18;;;;;;;2.00;1.90;;;24.90;64.70;;;;;;5102808;27;43979;-73
2022/08/03 08:12:48;;;;;;;1.63;1.63;;;24.90;64.60;;;;;;5108126;27;43864;-73
2022/08/03 08:15:16;;;;;;;1.77;1.77;;;24.90;65.10;;;;;;5089869;27;44467;-73
2022/08/03 08:17:44;;;;;;;1.90;1.80;;;24.80;65.10;;;;;;5108032;27;43962;-73
2022/08/03 08:20:16;;;;;;;2.00;1.70;;;24.90;64.80;;;;;;5108029;27;44248;-73
2022/08/03 08:22:58;;;;;;;1.70;1.70;;;25.00;64.30;;;;;;5107791;27;43837;-73
2022/08/03 08:25:28;;;;;;;1.90;1.83;;;25.10;63.50;;;;;;5108012;27;43376;-73
2022/08/03 08:28:00;;;;;;;1.50;1.50;;;25.20;63.20;;;;;;5107851;27;43904;-73
2022/08/03 08:30:48;;;;;;;1.70;1.70;;;25.30;63.40;;;;;;5122473;27;44126;-74
2022/08/03 08:33:16;;;;;;;1.83;1.83;;;25.20;63.50;;;;;;5108974;27;46276;-73
2022/08/03 08:35:54;;;;;;;1.50;1.50;;;25.10;63.90;;;;;;5109046;27;44840;-73
2022/08/03 08:38:22;;;;;;;1.57;1.57;;;25.10;63.80;;;;;;5127662;27;43868;-73
2022/08/03 08:40:50;;;;;;;1.73;1.73;;;25.10;64.00;;;;;;5127881;27;43816;-72
2022/08/03 08:43:19;;;;;;;1.50;1.50;;;25.00;64.10;;;;;;5127332;27;43891;-72
2022/08/03 08:45:49;;;;;;;1.60;1.60;;;25.00;64.50;;;;;;5108813;27;44693;-73
2022/08/03 08:48:18;;;;;;;1.60;1.60;;;24.90;64.70;;;;;;5127884;27;43813;-73
2022/08/03 08:50:48;;;;;;;1.40;1.40;;;24.90;64.60;;;;;;5127993;27;44014;-73
2022/08/03 08:53:16;;;;;;;1.60;1.60;;;24.90;64.50;;;;;;5127435;27;43919;-73
2022/08/03 08:55:49;;;;;;;1.67;1.67;;;24.90;64.60;;;;;;5127528;27;44006;-73
2022/08/03 08:58:30;;;;;;;1.70;1.70;;;24.80;65.10;;;;;;5127237;27;43844;-72
2022/08/03 09:00:58;;;;;;;1.57;1.57;;;24.90;65.00;;;;;;5127821;27;43870;-73
2022/08/03 09:03:26;;;;;;;1.73;1.63;;;25.00;65.40;;;;;;5127225;27;43661;-73
2022/08/03 09:06:01;;;;;;;1.70;1.70;;;25.00;64.10;;;;;;5127205;27;43947;-72
2022/08/03 09:08:29;;;;;;;8.60;1.93;;;25.20;63.70;;;;;;5108391;27;43998;-73
2022/08/03 09:10:57;;;;;;;5.03;1.60;;;25.20;63.60;;;;;;5127408;27;43909;-73
2022/08/03 09:13:25;;;;;;;1.67;1.67;;;25.20;63.70;;;;;;5108873;27;45257;-72
2022/08/03 09:16:10;;;;;;;1.60;1.60;;;25.20;63.90;;;;;;5127120;27;43760;-73
2022/08/03 09:18:38;;;;;;;3.17;1.70;;;25.10;64.30;;;;;;5125398;27;43946;-73
2022/08/03 09:21:14;;;;;;;1.50;1.50;;;25.10;64.30;;;;;;5130691;27;43995;-72
2022/08/03 09:23:59;;;;;;;2.03;1.70;;;25.00;64.40;;;;;;5130513;27;43884;-74
2022/08/03 09:26:31;;;;;;;3.60;1.63;;;25.00;64.80;;;;;;5130575;27;43928;-73
2022/08/03 09:29:00;;;;;;;4.20;1.90;;;24.90;65.80;;;;;;5130670;27;43956;-73
2022/08/03 09:31:38;;;;;;;3.63;1.80;;;25.00;64.80;;;;;;5130861;27;43893;-72
2022/08/03 09:34:11;;;;;;;3.27;1.70;;;25.00;64.50;;;;;;5104976;27;44835;-73
2022/08/03 09:36:41;;;;;;;3.33;1.97;;;25.10;64.30;;;;;;5110540;27;43351;-73
2022/08/03 09:39:13;;;;;;;4.53;1.63;;;25.10;64.30;;;;;;5110565;27;43956;-73
2022/08/03 09:41:42;;;;;;;1.83;1.67;;;25.10;64.20;;;;;;5110519;27;43927;-72
2022/08/03 09:44:12;;;;;;;1.87;1.87;;;25.10;64.30;;;;;;5110321;27;44055;-73
2022/08/03 09:46:55;;;;;;;2.00;1.60;;;25.00;64.10;;;;;;5091626;27;44915;-74
2022/08/03 09:49:24;;;;;;;1.60;1.60;;;25.00;64.30;;;;;;5091793;27;43869;-72
2022/08/03 09:51:52;;;;;;;2.27;1.70;;;24.90;64.40;;;;;;5110659;27;43960;-72
2022/08/03 09:54:41;;;;;;;1.67;1.67;;;24.80;64.50;;;;;;5110087;27;43982;-73
2022/08/03 09:57:22;;;;;;;1.55;1.55;;;24.80;64.60;;;;;;5109918;27;43861;-73
2022/08/03 09:59:50;;;;;;;1.83;1.70;;;24.80;64.80;;;;;;5110377;27;43889;-74
2022/08/03 10:02:40;;;;;;;1.97;1.87;;;24.70;65.90;;;;;;5107265;27;43991;-74
2022/08/03 10:05:09;;;;;;;3.70;2.20;;;24.80;65.80;;;;;;5109779;27;43912;-73
2022/08/03 10:07:46;;;;;;;3.73;2.70;;;25.00;65.20;;;;;;5110152;27;44110;-73
2022/08/03 10:10:15;;;;;;;2.63;2.30;;;25.10;64.20;;;;;;5088091;27;44066;-73
2022/08/03 10:12:58;;;;;;;2.03;1.93;;;25.40;62.90;;;;;;5110278;27;44025;-73
2022/08/03 10:15:26;;;;;;;5.57;2.10;;;25.60;61.70;;;;;;5109892;27;43902;-73
2022/08/03 10:18:16;;;;;;;9.35;2.30;;;25.90;60.50;;;;;;5109774;27;43349;-74
2022/08/03 10:20:47;;;;;;;2.95;2.42;;;26.10;60.00;;;;;;5109467;27;44184;-73
2022/08/03 10:23:17;;;;;;;2.90;2.45;;;26.30;59.80;;;;;;5091951;27;43471;-72
2022/08/03 10:25:47;;;;;;;3.15;2.67;;;26.40;59.50;;;;;;5091039;27;45815;-74
2022/08/03 10:28:18;;;;;;;3.28;2.60;;;26.50;59.30;;;;;;5129247;27;43912;-73
2022/08/03 10:30:48;;;;;;;2.83;2.65;;;26.50;59.00;;;;;;5102101;27;43993;-73
2022/08/03 10:33:22;;;;;;;2.63;2.42;;;26.60;58.90;;;;;;5071260;27;44221;-73
2022/08/03 10:36:10;;;;;;;3.65;2.70;;;26.70;59.40;;;;;;5091022;27;45718;-73
2022/08/03 10:38:40;;;;;;;4.15;2.60;;;26.60;59.10;;;;;;5109454;27;43981;-72
2022/08/03 10:41:08;;;;;;;2.78;2.50;;;26.40;59.30;;;;;;5109020;27;43465;-73
2022/08/03 10:43:43;;;;;;;3.00;2.80;;;26.20;60.00;;;;;;5109543;27;43952;-73
2022/08/03 10:46:11;;;;;;;2.97;2.65;;;26.00;60.80;;;;;;5109393;27;45124;-73
2022/08/03 10:48:40;;;;;;;2.92;2.80;;;25.90;61.10;;;;;;5109236;27;43435;-73
2022/08/03 10:51:08;;;;;;;2.88;2.60;;;25.80;61.70;;;;;;5108979;27;43960;-73
2022/08/03 10:53:37;;;;;;;2.80;2.70;;;25.60;62.00;;;;;;5109808;27;43403;-73
2022/08/03 10:59:11;;;;;;;2.50;2.40;;;25.40;63.60;;;;;;5109083;27;43977;-74
2022/08/03 11:01:56;;;;;;;2.40;2.30;;;25.50;62.40;;;;;;5090615;27;44032;-72
2022/08/03 11:04:29;;;;;;;2.20;2.20;;;25.60;61.90;;;;;;5109444;27;43926;-72
2022/08/03 11:07:21;;;;;;;2.60;2.40;;;25.70;61.70;;;;;;5108912;27;44030;-72
2022/08/03 11:09:50;;;;;;;2.70;2.70;;;25.70;61.70;;;;;;5090624;27;44375;-73
2022/08/03 11:12:22;;;;;;;2.40;2.30;;;25.60;61.90;;;;;;5109176;27;43924;-73
2022/08/03 11:14:59;;;;;;;2.27;2.20;;;25.60;62.20;;;;;;5109449;27;43400;-73
2022/08/03 11:17:33;;;;;;;2.87;2.33;;;25.40;62.60;;;;;;5108850;27;43911;-73
2022/08/03 11:20:47;;;;;;;2.20;2.20;;;25.40;62.80;;;;;;5108540;27;44024;-72
2022/08/03 11:23:16;;;;;;;2.50;2.40;;;25.30;62.90;;;;;;5096047;27;43964;-73
2022/08/03 11:26:12;;;;;;;2.63;2.53;;;25.20;63.30;;;;;;5109170;27;43938;-72
2022/08/03 11:28:40;;;;;;;3.80;2.50;;;25.10;63.70;;;;;;5106576;27;45564;-73
2022/08/03 11:31:46;;;;;;;2.20;2.20;;;25.20;63.30;;;;;;5128400;27;43905;-73
2022/08/03 11:34:17;;;;;;;2.67;2.57;;;25.30;62.90;;;;;;5128744;27;43955;-73
2022/08/03 11:37:19;;;;;;;2.20;2.20;;;25.40;62.50;;;;;;5128895;27;43430;-73
2022/08/03 11:39:51;;;;;;;2.10;2.10;;;25.50;62.60;;;;;;5128650;27;43928;-73
2022/08/03 11:42:42;;;;;;;2.20;2.20;;;25.50;62.70;;;;;;5101927;27;43996;-73
2022/08/03 11:45:10;;;;;;;2.07;2.00;;;25.40;63.10;;;;;;5108576;27;43741;-73
2022/08/03 11:47:40;;;;;;;2.00;1.90;;;25.30;63.40;;;;;;5108830;27;44024;-75
2022/08/03 11:50:18;;;;;;;2.07;2.07;;;25.30;63.50;;;;;;5108609;27;43970;-74
2022/08/03 11:52:50;;;;;;;2.35;2.25;;;25.20;63.40;;;;;;5108552;27;44006;-74
2022/08/03 11:55:20;;;;;;;2.20;2.20;;;25.10;63.80;;;;;;5090027;27;43888;-73
2022/08/03 11:57:48;;;;;;;2.17;2.17;;;25.10;64.10;;;;;;5090186;27;44146;-74
2022/08/03 12:00:36;;;;;;;1.90;1.90;;;25.10;64.00;;;;;;5108056;27;43828;-72
2022/08/03 12:03:06;;;;;;;1.90;1.80;;;25.00;63.90;;;;;;5089429;27;44957;-73
2022/08/03 12:05:41;;;;;;;2.20;2.20;;;25.00;64.50;;;;;;5108236;27;44038;-73
2022/08/03 12:08:31;;;;;;;2.23;2.00;;;25.00;64.50;;;;;;5108693;27;44022;-73
2022/08/03 12:11:01;;;;;;;2.53;2.33;;;25.00;64.20;;;;;;5107839;27;44739;-72
2022/08/03 12:13:37;;;;;;;1.97;1.97;;;25.10;63.80;;;;;;5101224;27;43923;-74
2022/08/03 12:16:29;;;;;;;2.60;2.10;;;25.30;63.80;;;;;;5108092;27;43447;-72
2022/08/03 12:18:58;;;;;;;2.00;1.90;;;25.30;61.60;;;;;;5108424;27;43693;-73
2022/08/03 12:21:28;;;;;;;2.07;1.90;;;25.30;61.10;;;;;;5107653;27;43856;-74
2022/08/03 12:23:59;;;;;;;3.63;1.87;;;25.30;62.10;;;;;;5107669;27;43819;-72
2022/08/03 12:26:27;;;;;;;1.90;1.90;;;25.20;62.50;;;;;;5108009;27;43906;-73
2022/08/03 12:28:57;;;;;;;1.80;1.80;;;25.20;62.70;;;;;;5108241;27;43817;-72
2022/08/03 12:31:27;;;;;;;2.00;1.90;;;25.10;62.90;;;;;;5088986;27;45940;-73
2022/08/03 12:33:56;;;;;;;1.90;1.90;;;25.10;63.20;;;;;;5107912;27;43447;-73
2022/08/03 12:36:26;;;;;;;1.67;1.67;;;25.00;64.00;;;;;;5107787;27;43958;-73
2022/08/03 12:38:55;;;;;;;1.90;1.90;;;25.00;64.00;;;;;;5107927;27;43834;-73
2022/08/03 12:41:32;;;;;;;1.87;1.87;;;25.00;63.80;;;;;;5088132;27;44194;-73
2022/08/03 12:44:02;;;;;;;2.63;2.03;;;25.00;63.80;;;;;;5107529;27;44032;-73
2022/08/03 12:46:33;;;;;;;1.87;1.87;;;25.00;64.60;;;;;;5089100;27;43909;-73
2022/08/03 12:49:09;;;;;;;2.10;2.03;;;25.00;64.80;;;;;;5108161;27;44094;-73
2022/08/03 12:51:42;;;;;;;2.10;2.00;;;25.00;64.20;;;;;;5107205;27;44642;-72
2022/08/03 12:54:10;;;;;;;1.80;1.80;;;25.10;63.70;;;;;;5106541;27;44021;-71
2022/08/03 12:56:58;;;;;;;1.90;1.80;;;25.30;63.40;;;;;;5092652;27;43381;-74
2022/08/03 12:59:29;;;;;;;1.80;1.80;;;25.30;63.20;;;;;;5111627;27;43900;-73
2022/08/03 13:02:02;;;;;;;1.77;1.77;;;25.30;63.20;;;;;;5110702;27;44910;-73
2022/08/03 13:04:37;;;;;;;1.90;1.90;;;25.30;63.30;;;;;;5110998;27;43809;-72
2022/08/03 13:07:06;;;;;;;2.00;1.90;;;25.20;63.90;;;;;;5110953;27;43419;-73
2022/08/03 13:09:46;;;;;;;1.60;1.60;;;25.20;63.90;;;;;;5111401;27;43951;-73
2022/08/03 13:12:16;;;;;;;1.70;1.70;;;25.10;63.60;;;;;;5092112;27;47161;-73
2022/08/03 13:14:46;;;;;;;1.80;1.80;;;25.10;63.90;;;;;;5111036;27;43939;-72
2022/08/03 13:17:15;;;;;;;1.70;1.70;;;25.00;64.40;;;;;;5121369;27;43956;-72
2022/08/03 13:19:46;;;;;;;1.80;1.80;;;25.00;64.50;;;;;;5131341;27;44570;-74
2022/08/03 13:22:15;;;;;;;1.60;1.60;;;25.10;64.10;;;;;;5126000;27;43947;-73